HRYR/KGL METAR and TAF weather

Enter ICAO airport designator
Station Type Date Time Source
HRYR METAR 2018/04/26 14:30 UTC NOAA

HRYR 261430Z 32003KT 9999 -RA FEW020CB BKN023 BKN090 18/16 Q1019 NOSIG


Station Type Date Time Source
HRYR Decoded METAR 2018/04/26 14:30 UTC NOAA

Kigali, Rwanda (HRYR) 01-58S 030-07E 1497M
Apr 26, 2018 - 10:30 AM EDT / 2018.04.26 1430 UTC
Wind: from the NW (320 degrees) at 3 MPH (3 KT):0
Visibility: greater than 7 mile(s):0
Sky conditions: mostly cloudy
Weather: light rain; Cumulonimbus clouds observed
Temperature: 64 F (18 C)
Dew Point: 60 F (16 C)
Relative Humidity: 88%
Pressure (altimeter): 30.09 in. Hg (1019 hPa)
ob: HRYR 261430Z 32003KT 9999 -RA FEW020CB BKN023 BKN090 18/16 Q1019 NOSIG
cycle: 14

Station Type Date Time Source
HRYR TAF 2018/04/26 12:27 UTC NOAA

TAF TAF COR HRYR 261100Z 2612/2718 04017KT 5000 -TSRA FEW018CB BKN020 BKN090
TEMPO 2613/2617 20012KT TS FEW023CB BKN025
FM262200 32006KT -RA BKN025 BKN100
BECMG 2702/2705 VRB03KT 0800 FG SCT010 SCT025
FM270700 30006KT BKN023 SCT100
TEMPO 2710/1716 20010G25KT -TSRA FEW023CB BKN025


Example: see airport list